sensor_id;sensor_type;location;lat;lon;timestamp;temperature;humidity
15203;DHT22;7702;51.046;5.184;2022-12-29T00:00:10;11.30;99.90
15203;DHT22;7702;51.046;5.184;2022-12-29T00:02:36;11.30;99.90
15203;DHT22;7702;51.046;5.184;2022-12-29T00:05:02;11.40;99.90
15203;DHT22;7702;51.046;5.184;2022-12-29T00:07:28;11.40;99.90
15203;DHT22;7702;51.046;5.184;2022-12-29T00:09:53;11.40;99.90
15203;DHT22;7702;51.046;5.184;2022-12-29T00:12:19;11.40;99.90
15203;DHT22;7702;51.046;5.184;2022-12-29T00:14:46;11.40;99.90
15203;DHT22;7702;51.046;5.184;2022-12-29T00:17:30;11.40;99.90
15203;DHT22;7702;51.046;5.184;2022-12-29T00:19:55;11.40;99.90
15203;DHT22;7702;51.046;5.184;2022-12-29T00:22:40;11.40;99.90
15203;DHT22;7702;51.046;5.184;2022-12-29T00:25:24;11.50;99.90
15203;DHT22;7702;51.046;5.184;2022-12-29T00:28:08;11.50;99.90
15203;DHT22;7702;51.046;5.184;2022-12-29T00:30:53;11.50;99.90
15203;DHT22;7702;51.046;5.184;2022-12-29T00:33:37;11.60;99.90
15203;DHT22;7702;51.046;5.184;2022-12-29T00:36:35;11.60;99.90
15203;DHT22;7702;51.046;5.184;2022-12-29T00:39:07;11.60;99.90
15203;DHT22;7702;51.046;5.184;2022-12-29T00:41:51;11.60;99.90
15203;DHT22;7702;51.046;5.184;2022-12-29T00:44:35;11.60;99.90
15203;DHT22;7702;51.046;5.184;2022-12-29T00:47:01;11.60;99.90
15203;DHT22;7702;51.046;5.184;2022-12-29T00:49:30;11.70;99.90
15203;DHT22;7702;51.046;5.184;2022-12-29T00:52:10;11.60;99.90
15203;DHT22;7702;51.046;5.184;2022-12-29T00:54:38;11.60;99.90
15203;DHT22;7702;51.046;5.184;2022-12-29T00:57:06;11.60;99.90
15203;DHT22;7702;51.046;5.184;2022-12-29T00:59:35;11.70;99.90
15203;DHT22;7702;51.046;5.184;2022-12-29T01:02:01;11.70;99.90
15203;DHT22;7702;51.046;5.184;2022-12-29T01:04:26;11.70;99.90
15203;DHT22;7702;51.046;5.184;2022-12-29T01:06:53;11.70;99.90
15203;DHT22;7702;51.046;5.184;2022-12-29T01:09:19;11.70;99.90
15203;DHT22;7702;51.046;5.184;2022-12-29T01:12:04;11.70;99.90
15203;DHT22;7702;51.046;5.184;2022-12-29T01:14:30;11.70;99.90
15203;DHT22;7702;51.046;5.184;2022-12-29T01:16:57;11.70;99.90
15203;DHT22;7702;51.046;5.184;2022-12-29T01:19:24;11.80;99.90
15203;DHT22;7702;51.046;5.184;2022-12-29T01:21:50;11.80;99.90
15203;DHT22;7702;51.046;5.184;2022-12-29T01:24:17;11.80;99.90
15203;DHT22;7702;51.046;5.184;2022-12-29T01:26:43;11.80;99.90
15203;DHT22;7702;51.046;5.184;2022-12-29T01:29:09;11.80;99.90
15203;DHT22;7702;51.046;5.184;2022-12-29T01:31:35;11.80;99.90
15203;DHT22;7702;51.046;5.184;2022-12-29T01:34:01;11.80;99.90
15203;DHT22;7702;51.046;5.184;2022-12-29T01:36:28;11.90;99.90
15203;DHT22;7702;51.046;5.184;2022-12-29T01:38:53;11.80;99.90
15203;DHT22;7702;51.046;5.184;2022-12-29T01:41:19;11.90;99.90
15203;DHT22;7702;51.046;5.184;2022-12-29T01:43:48;11.80;99.90
15203;DHT22;7702;51.046;5.184;2022-12-29T01:46:20;11.80;99.90
15203;DHT22;7702;51.046;5.184;2022-12-29T01:49:02;11.80;99.90
15203;DHT22;7702;51.046;5.184;2022-12-29T01:51:30;11.70;99.90
15203;DHT22;7702;51.046;5.184;2022-12-29T01:53:58;11.70;99.90
15203;DHT22;7702;51.046;5.184;2022-12-29T01:56:24;11.60;99.90
15203;DHT22;7702;51.046;5.184;2022-12-29T01:58:56;11.50;99.90
15203;DHT22;7702;51.046;5.184;2022-12-29T02:01:23;11.40;99.90
15203;DHT22;7702;51.046;5.184;2022-12-29T02:03:50;11.30;99.90
15203;DHT22;7702;51.046;5.184;2022-12-29T02:09:03;11.30;99.90
15203;DHT22;7702;51.046;5.184;2022-12-29T02:11:30;11.30;99.90
15203;DHT22;7702;51.046;5.184;2022-12-29T02:13:57;11.20;99.90
15203;DHT22;7702;51.046;5.184;2022-12-29T02:22:23;11.10;99.90
15203;DHT22;7702;51.046;5.184;2022-12-29T02:28:11;10.90;99.90
15203;DHT22;7702;51.046;5.184;2022-12-29T02:30:55;10.80;99.90
15203;DHT22;7702;51.046;5.184;2022-12-29T02:33:46;10.70;99.90
15203;DHT22;7702;51.046;5.184;2022-12-29T02:54:25;10.70;99.90
15203;DHT22;7702;51.046;5.184;2022-12-29T02:59:50;10.70;99.90
15203;DHT22;7702;51.046;5.184;2022-12-29T03:05:13;10.70;99.90
15203;DHT22;7702;51.046;5.184;2022-12-29T03:13:01;10.70;99.90
15203;DHT22;7702;51.046;5.184;2022-12-29T03:21:51;10.70;99.90
15203;DHT22;7702;51.046;5.184;2022-12-29T03:24:41;10.60;99.90
15203;DHT22;7702;51.046;5.184;2022-12-29T03:27:11;10.60;99.90
15203;DHT22;7702;51.046;5.184;2022-12-29T03:29:51;10.40;99.90
15203;DHT22;7702;51.046;5.184;2022-12-29T03:32:21;10.40;99.90
15203;DHT22;7702;51.046;5.184;2022-12-29T03:34:49;10.20;99.90
15203;DHT22;7702;51.046;5.184;2022-12-29T03:37:20;10.10;99.90
15203;DHT22;7702;51.046;5.184;2022-12-29T03:39:46;9.90;99.90
15203;DHT22;7702;51.046;5.184;2022-12-29T03:42:19;9.80;99.90
15203;DHT22;7702;51.046;5.184;2022-12-29T03:44:46;9.70;99.90
15203;DHT22;7702;51.046;5.184;2022-12-29T03:47:13;9.70;99.90
15203;DHT22;7702;51.046;5.184;2022-12-29T03:49:40;9.70;99.90
15203;DHT22;7702;51.046;5.184;2022-12-29T03:52:06;9.70;99.90
15203;DHT22;7702;51.046;5.184;2022-12-29T03:54:32;9.60;99.90
15203;DHT22;7702;51.046;5.184;2022-12-29T03:56:58;9.60;99.90
15203;DHT22;7702;51.046;5.184;2022-12-29T03:59:23;9.60;99.90
15203;DHT22;7702;51.046;5.184;2022-12-29T04:01:49;9.60;99.90
15203;DHT22;7702;51.046;5.184;2022-12-29T04:04:15;9.60;99.90
15203;DHT22;7702;51.046;5.184;2022-12-29T04:06:41;9.60;99.90
15203;DHT22;7702;51.046;5.184;2022-12-29T04:09:07;9.60;99.90
15203;DHT22;7702;51.046;5.184;2022-12-29T04:11:33;9.60;99.90
15203;DHT22;7702;51.046;5.184;2022-12-29T04:13:58;9.60;99.90
15203;DHT22;7702;51.046;5.184;2022-12-29T04:16:25;9.60;99.90
15203;DHT22;7702;51.046;5.184;2022-12-29T04:18:50;9.70;99.90
15203;DHT22;7702;51.046;5.184;2022-12-29T04:21:16;9.80;99.90
15203;DHT22;7702;51.046;5.184;2022-12-29T04:23:42;10.00;99.90
15203;DHT22;7702;51.046;5.184;2022-12-29T04:26:07;10.00;99.90
15203;DHT22;7702;51.046;5.184;2022-12-29T04:28:35;10.00;99.90
15203;DHT22;7702;51.046;5.184;2022-12-29T04:31:01;10.00;99.90
15203;DHT22;7702;51.046;5.184;2022-12-29T04:33:26;10.10;99.90
15203;DHT22;7702;51.046;5.184;2022-12-29T04:35:53;10.10;99.90
15203;DHT22;7702;51.046;5.184;2022-12-29T04:38:20;10.10;99.90
15203;DHT22;7702;51.046;5.184;2022-12-29T04:40:46;10.10;99.90
15203;DHT22;7702;51.046;5.184;2022-12-29T04:43:12;10.10;99.90
15203;DHT22;7702;51.046;5.184;2022-12-29T04:45:42;10.10;99.90
15203;DHT22;7702;51.046;5.184;2022-12-29T04:48:08;10.10;99.90
15203;DHT22;7702;51.046;5.184;2022-12-29T04:50:34;10.10;99.90
15203;DHT22;7702;51.046;5.184;2022-12-29T04:53:00;10.10;99.90
15203;DHT22;7702;51.046;5.184;2022-12-29T04:55:26;10.00;99.90
15203;DHT22;7702;51.046;5.184;2022-12-29T04:57:52;10.10;99.90
15203;DHT22;7702;51.046;5.184;2022-12-29T05:00:18;10.10;99.90
15203;DHT22;7702;51.046;5.184;2022-12-29T05:02:44;10.10;99.90
15203;DHT22;7702;51.046;5.184;2022-12-29T05:05:10;10.00;99.90
15203;DHT22;7702;51.046;5.184;2022-12-29T05:07:35;9.90;99.90
15203;DHT22;7702;51.046;5.184;2022-12-29T05:10:01;10.00;99.90
15203;DHT22;7702;51.046;5.184;2022-12-29T05:12:31;9.90;99.90
15203;DHT22;7702;51.046;5.184;2022-12-29T05:14:58;10.00;99.90
15203;DHT22;7702;51.046;5.184;2022-12-29T05:17:24;10.10;99.90
15203;DHT22;7702;51.046;5.184;2022-12-29T05:19:50;10.20;99.90
15203;DHT22;7702;51.046;5.184;2022-12-29T05:22:16;10.30;99.90
15203;DHT22;7702;51.046;5.184;2022-12-29T05:24:41;10.30;99.90
15203;DHT22;7702;51.046;5.184;2022-12-29T05:27:07;10.40;99.90
15203;DHT22;7702;51.046;5.184;2022-12-29T05:29:33;10.50;99.90
15203;DHT22;7702;51.046;5.184;2022-12-29T05:31:58;10.50;99.90
15203;DHT22;7702;51.046;5.184;2022-12-29T05:34:25;10.50;99.90
15203;DHT22;7702;51.046;5.184;2022-12-29T05:36:50;10.50;99.90
15203;DHT22;7702;51.046;5.184;2022-12-29T05:39:16;10.50;99.90
15203;DHT22;7702;51.046;5.184;2022-12-29T05:41:42;10.50;99.90
15203;DHT22;7702;51.046;5.184;2022-12-29T05:44:09;10.50;99.90
15203;DHT22;7702;51.046;5.184;2022-12-29T05:46:35;10.50;99.90
15203;DHT22;7702;51.046;5.184;2022-12-29T05:49:00;10.50;99.90
15203;DHT22;7702;51.046;5.184;2022-12-29T05:51:26;10.60;99.90
15203;DHT22;7702;51.046;5.184;2022-12-29T05:53:52;10.60;99.90
15203;DHT22;7702;51.046;5.184;2022-12-29T05:56:17;10.60;99.90
15203;DHT22;7702;51.046;5.184;2022-12-29T05:58:44;10.50;99.90
15203;DHT22;7702;51.046;5.184;2022-12-29T06:01:09;10.50;99.90
15203;DHT22;7702;51.046;5.184;2022-12-29T06:03:35;10.40;99.90
15203;DHT22;7702;51.046;5.184;2022-12-29T06:06:01;10.50;99.90
15203;DHT22;7702;51.046;5.184;2022-12-29T06:08:27;10.50;99.90
15203;DHT22;7702;51.046;5.184;2022-12-29T06:10:52;10.50;99.90
15203;DHT22;7702;51.046;5.184;2022-12-29T06:13:18;10.60;99.90
15203;DHT22;7702;51.046;5.184;2022-12-29T06:15:44;10.60;99.90
15203;DHT22;7702;51.046;5.184;2022-12-29T06:18:10;10.60;99.90
15203;DHT22;7702;51.046;5.184;2022-12-29T06:20:36;10.60;99.90
15203;DHT22;7702;51.046;5.184;2022-12-29T06:23:01;10.60;99.90
15203;DHT22;7702;51.046;5.184;2022-12-29T06:25:27;10.60;99.90
15203;DHT22;7702;51.046;5.184;2022-12-29T06:27:56;10.70;99.90
15203;DHT22;7702;51.046;5.184;2022-12-29T06:30:21;10.60;99.90
15203;DHT22;7702;51.046;5.184;2022-12-29T06:32:47;10.60;99.90
15203;DHT22;7702;51.046;5.184;2022-12-29T06:35:13;10.50;99.90
15203;DHT22;7702;51.046;5.184;2022-12-29T06:37:39;10.60;99.90
15203;DHT22;7702;51.046;5.184;2022-12-29T06:40:05;10.60;99.90
15203;DHT22;7702;51.046;5.184;2022-12-29T06:42:31;10.60;99.90
15203;DHT22;7702;51.046;5.184;2022-12-29T06:44:57;10.60;99.90
15203;DHT22;7702;51.046;5.184;2022-12-29T06:47:24;10.70;99.90
15203;DHT22;7702;51.046;5.184;2022-12-29T06:49:50;10.70;99.90
15203;DHT22;7702;51.046;5.184;2022-12-29T06:52:16;10.70;99.90
15203;DHT22;7702;51.046;5.184;2022-12-29T06:54:41;10.70;99.90
15203;DHT22;7702;51.046;5.184;2022-12-29T06:57:07;10.70;99.90
15203;DHT22;7702;51.046;5.184;2022-12-29T06:59:33;10.70;99.90
15203;DHT22;7702;51.046;5.184;2022-12-29T07:01:58;10.70;99.90
15203;DHT22;7702;51.046;5.184;2022-12-29T07:04:24;10.70;99.90
15203;DHT22;7702;51.046;5.184;2022-12-29T07:06:50;10.70;99.90
15203;DHT22;7702;51.046;5.184;2022-12-29T07:09:15;10.60;99.90
15203;DHT22;7702;51.046;5.184;2022-12-29T07:11:41;10.60;99.90
15203;DHT22;7702;51.046;5.184;2022-12-29T07:14:07;10.60;99.90
15203;DHT22;7702;51.046;5.184;2022-12-29T07:16:32;10.60;99.90
15203;DHT22;7702;51.046;5.184;2022-12-29T07:18:59;10.60;99.90
15203;DHT22;7702;51.046;5.184;2022-12-29T07:21:25;10.60;99.90
15203;DHT22;7702;51.046;5.184;2022-12-29T07:23:51;10.60;99.90
15203;DHT22;7702;51.046;5.184;2022-12-29T07:26:16;10.60;99.90
15203;DHT22;7702;51.046;5.184;2022-12-29T07:28:43;10.60;99.90
15203;DHT22;7702;51.046;5.184;2022-12-29T07:31:17;10.70;99.90
15203;DHT22;7702;51.046;5.184;2022-12-29T07:33:44;10.60;99.90
15203;DHT22;7702;51.046;5.184;2022-12-29T07:36:11;10.60;99.90
15203;DHT22;7702;51.046;5.184;2022-12-29T07:38:37;10.60;99.90
15203;DHT22;7702;51.046;5.184;2022-12-29T07:41:03;10.70;99.90
15203;DHT22;7702;51.046;5.184;2022-12-29T07:43:29;10.70;99.90
15203;DHT22;7702;51.046;5.184;2022-12-29T07:45:54;10.70;99.90
15203;DHT22;7702;51.046;5.184;2022-12-29T07:48:20;10.70;99.90
15203;DHT22;7702;51.046;5.184;2022-12-29T07:50:46;10.70;99.90
15203;DHT22;7702;51.046;5.184;2022-12-29T07:53:12;10.60;99.90
15203;DHT22;7702;51.046;5.184;2022-12-29T07:55:38;10.60;99.90
15203;DHT22;7702;51.046;5.184;2022-12-29T07:58:04;10.60;99.90
15203;DHT22;7702;51.046;5.184;2022-12-29T08:00:30;10.60;99.90
15203;DHT22;7702;51.046;5.184;2022-12-29T08:02:55;10.60;99.90
15203;DHT22;7702;51.046;5.184;2022-12-29T08:05:21;10.50;99.90
15203;DHT22;7702;51.046;5.184;2022-12-29T08:07:47;10.60;99.90
15203;DHT22;7702;51.046;5.184;2022-12-29T08:10:14;10.70;99.90
15203;DHT22;7702;51.046;5.184;2022-12-29T08:12:40;10.60;99.90
15203;DHT22;7702;51.046;5.184;2022-12-29T08:15:09;10.60;99.90
15203;DHT22;7702;51.046;5.184;2022-12-29T08:17:35;10.60;99.90
15203;DHT22;7702;51.046;5.184;2022-12-29T08:20:01;10.60;99.90
15203;DHT22;7702;51.046;5.184;2022-12-29T08:22:26;10.70;99.90
15203;DHT22;7702;51.046;5.184;2022-12-29T08:24:52;10.70;99.90
15203;DHT22;7702;51.046;5.184;2022-12-29T08:27:18;10.60;99.90
15203;DHT22;7702;51.046;5.184;2022-12-29T08:29:44;10.70;99.90
15203;DHT22;7702;51.046;5.184;2022-12-29T08:32:10;10.70;99.90
15203;DHT22;7702;51.046;5.184;2022-12-29T08:34:36;10.70;99.90
15203;DHT22;7702;51.046;5.184;2022-12-29T08:37:02;10.70;99.90
15203;DHT22;7702;51.046;5.184;2022-12-29T08:39:28;10.70;99.90
15203;DHT22;7702;51.046;5.184;2022-12-29T08:41:54;10.80;99.90
15203;DHT22;7702;51.046;5.184;2022-12-29T08:44:19;10.80;99.90
15203;DHT22;7702;51.046;5.184;2022-12-29T08:46:45;10.80;99.90
15203;DHT22;7702;51.046;5.184;2022-12-29T08:49:11;10.80;99.90
15203;DHT22;7702;51.046;5.184;2022-12-29T08:51:36;10.80;99.90
15203;DHT22;7702;51.046;5.184;2022-12-29T08:54:02;10.80;99.90
15203;DHT22;7702;51.046;5.184;2022-12-29T08:56:28;10.80;99.90
15203;DHT22;7702;51.046;5.184;2022-12-29T08:58:54;10.80;99.90
15203;DHT22;7702;51.046;5.184;2022-12-29T09:01:20;10.80;99.90
15203;DHT22;7702;51.046;5.184;2022-12-29T09:03:46;10.80;99.90
15203;DHT22;7702;51.046;5.184;2022-12-29T09:06:13;10.80;99.90
15203;DHT22;7702;51.046;5.184;2022-12-29T09:08:39;10.70;99.90
15203;DHT22;7702;51.046;5.184;2022-12-29T09:11:11;10.80;99.90
15203;DHT22;7702;51.046;5.184;2022-12-29T09:13:37;10.70;99.90
15203;DHT22;7702;51.046;5.184;2022-12-29T09:16:03;10.80;99.90
15203;DHT22;7702;51.046;5.184;2022-12-29T09:18:29;10.80;99.90
15203;DHT22;7702;51.046;5.184;2022-12-29T09:20:59;10.90;99.90
15203;DHT22;7702;51.046;5.184;2022-12-29T09:23:26;10.90;99.90
15203;DHT22;7702;51.046;5.184;2022-12-29T09:25:53;10.80;99.90
15203;DHT22;7702;51.046;5.184;2022-12-29T09:28:19;10.80;99.90
15203;DHT22;7702;51.046;5.184;2022-12-29T09:30:45;10.80;99.90
15203;DHT22;7702;51.046;5.184;2022-12-29T09:33:11;10.90;99.90
15203;DHT22;7702;51.046;5.184;2022-12-29T09:35:37;10.90;99.90
15203;DHT22;7702;51.046;5.184;2022-12-29T09:38:06;10.90;99.90
15203;DHT22;7702;51.046;5.184;2022-12-29T09:40:33;10.90;99.90
15203;DHT22;7702;51.046;5.184;2022-12-29T09:48:37;10.70;99.90
15203;DHT22;7702;51.046;5.184;2022-12-29T09:51:10;10.80;99.90
15203;DHT22;7702;51.046;5.184;2022-12-29T09:53:41;10.90;99.90
15203;DHT22;7702;51.046;5.184;2022-12-29T09:56:21;10.90;99.90
15203;DHT22;7702;51.046;5.184;2022-12-29T09:58:58;11.00;99.90
15203;DHT22;7702;51.046;5.184;2022-12-29T10:01:32;11.00;99.90
15203;DHT22;7702;51.046;5.184;2022-12-29T10:04:00;10.90;99.90
15203;DHT22;7702;51.046;5.184;2022-12-29T10:10:10;10.90;99.90
15203;DHT22;7702;51.046;5.184;2022-12-29T10:12:57;10.90;99.90
15203;DHT22;7702;51.046;5.184;2022-12-29T10:17:58;10.90;99.90
15203;DHT22;7702;51.046;5.184;2022-12-29T10:26:21;11.00;99.90
15203;DHT22;7702;51.046;5.184;2022-12-29T10:29:02;11.00;99.90
15203;DHT22;7702;51.046;5.184;2022-12-29T10:31:46;11.00;99.90
15203;DHT22;7702;51.046;5.184;2022-12-29T10:34:20;11.10;99.90
15203;DHT22;7702;51.046;5.184;2022-12-29T10:36:49;11.10;99.90
15203;DHT22;7702;51.046;5.184;2022-12-29T10:44:40;11.20;99.90
15203;DHT22;7702;51.046;5.184;2022-12-29T10:47:16;11.20;99.90
15203;DHT22;7702;51.046;5.184;2022-12-29T10:49:45;11.30;99.90
15203;DHT22;7702;51.046;5.184;2022-12-29T10:52:14;11.40;99.90
15203;DHT22;7702;51.046;5.184;2022-12-29T10:54:57;11.40;99.90
15203;DHT22;7702;51.046;5.184;2022-12-29T10:57:28;11.30;99.90
15203;DHT22;7702;51.046;5.184;2022-12-29T10:59:57;11.30;99.90
15203;DHT22;7702;51.046;5.184;2022-12-29T11:05:36;11.20;99.90
15203;DHT22;7702;51.046;5.184;2022-12-29T11:08:08;11.20;99.90
15203;DHT22;7702;51.046;5.184;2022-12-29T11:10:39;11.20;99.90
15203;DHT22;7702;51.046;5.184;2022-12-29T11:13:16;11.20;99.90
15203;DHT22;7702;51.046;5.184;2022-12-29T11:15:44;11.20;99.90
15203;DHT22;7702;51.046;5.184;2022-12-29T11:18:38;11.20;99.90
15203;DHT22;7702;51.046;5.184;2022-12-29T11:21:31;11.20;99.90
15203;DHT22;7702;51.046;5.184;2022-12-29T11:24:02;11.30;99.90
15203;DHT22;7702;51.046;5.184;2022-12-29T11:26:30;11.30;99.90
15203;DHT22;7702;51.046;5.184;2022-12-29T11:34:19;11.30;99.90
15203;DHT22;7702;51.046;5.184;2022-12-29T11:36:45;11.30;99.90
15203;DHT22;7702;51.046;5.184;2022-12-29T11:41:56;11.20;99.90
15203;DHT22;7702;51.046;5.184;2022-12-29T11:44:23;11.20;99.90
15203;DHT22;7702;51.046;5.184;2022-12-29T11:46:51;11.20;99.90
15203;DHT22;7702;51.046;5.184;2022-12-29T11:49:23;11.10;99.90
15203;DHT22;7702;51.046;5.184;2022-12-29T11:51:51;11.10;99.90
15203;DHT22;7702;51.046;5.184;2022-12-29T11:54:30;11.20;99.90
15203;DHT22;7702;51.046;5.184;2022-12-29T11:56:58;11.20;99.90
15203;DHT22;7702;51.046;5.184;2022-12-29T11:59:40;11.20;99.90
15203;DHT22;7702;51.046;5.184;2022-12-29T12:05:28;11.10;99.90
15203;DHT22;7702;51.046;5.184;2022-12-29T12:14:02;11.10;99.90
15203;DHT22;7702;51.046;5.184;2022-12-29T12:16:37;11.10;99.90
15203;DHT22;7702;51.046;5.184;2022-12-29T12:19:16;11.10;99.90
15203;DHT22;7702;51.046;5.184;2022-12-29T12:21:50;11.10;99.90
15203;DHT22;7702;51.046;5.184;2022-12-29T12:24:33;11.10;99.90
15203;DHT22;7702;51.046;5.184;2022-12-29T12:27:19;11.20;99.90
15203;DHT22;7702;51.046;5.184;2022-12-29T12:30:07;11.20;99.90
15203;DHT22;7702;51.046;5.184;2022-12-29T12:32:58;11.00;99.90
15203;DHT22;7702;51.046;5.184;2022-12-29T12:35:47;10.90;99.90
15203;DHT22;7702;51.046;5.184;2022-12-29T12:41:17;10.70;99.90
15203;DHT22;7702;51.046;5.184;2022-12-29T12:43:50;10.80;99.90
15203;DHT22;7702;51.046;5.184;2022-12-29T13:05:05;10.80;99.90
15203;DHT22;7702;51.046;5.184;2022-12-29T13:07:57;10.80;99.90
15203;DHT22;7702;51.046;5.184;2022-12-29T13:16:01;10.80;99.90
15203;DHT22;7702;51.046;5.184;2022-12-29T13:24:35;10.80;99.90
15203;DHT22;7702;51.046;5.184;2022-12-29T13:27:04;10.80;99.90
15203;DHT22;7702;51.046;5.184;2022-12-29T13:30:05;10.80;99.90
15203;DHT22;7702;51.046;5.184;2022-12-29T13:35:24;10.70;99.90
15203;DHT22;7702;51.046;5.184;2022-12-29T13:40:30;10.80;99.90
15203;DHT22;7702;51.046;5.184;2022-12-29T13:43:00;10.80;99.90
15203;DHT22;7702;51.046;5.184;2022-12-29T13:45:29;10.80;99.90
15203;DHT22;7702;51.046;5.184;2022-12-29T13:50:27;10.90;99.90
15203;DHT22;7702;51.046;5.184;2022-12-29T13:53:06;10.80;99.90
15203;DHT22;7702;51.046;5.184;2022-12-29T13:55:44;10.80;99.90
15203;DHT22;7702;51.046;5.184;2022-12-29T14:03:31;10.80;99.90
15203;DHT22;7702;51.046;5.184;2022-12-29T14:06:27;10.80;99.90
15203;DHT22;7702;51.046;5.184;2022-12-29T14:09:04;10.70;99.90
15203;DHT22;7702;51.046;5.184;2022-12-29T14:11:32;10.70;99.90
15203;DHT22;7702;51.046;5.184;2022-12-29T14:13:59;10.70;99.90
15203;DHT22;7702;51.046;5.184;2022-12-29T14:16:35;10.80;99.90
15203;DHT22;7702;51.046;5.184;2022-12-29T14:19:26;10.80;99.90
15203;DHT22;7702;51.046;5.184;2022-12-29T14:21:56;10.80;99.90
15203;DHT22;7702;51.046;5.184;2022-12-29T14:34:53;10.50;99.90
15203;DHT22;7702;51.046;5.184;2022-12-29T14:37:27;10.40;99.90
15203;DHT22;7702;51.046;5.184;2022-12-29T14:40:22;10.40;99.90
15203;DHT22;7702;51.046;5.184;2022-12-29T14:42:51;10.30;99.90
15203;DHT22;7702;51.046;5.184;2022-12-29T14:47:46;10.20;99.90
15203;DHT22;7702;51.046;5.184;2022-12-29T14:52:55;10.30;99.90
15203;DHT22;7702;51.046;5.184;2022-12-29T14:55:47;10.20;99.90
15203;DHT22;7702;51.046;5.184;2022-12-29T14:58:26;10.20;99.90
15203;DHT22;7702;51.046;5.184;2022-12-29T15:00:53;10.20;99.90
15203;DHT22;7702;51.046;5.184;2022-12-29T15:03:29;10.20;99.90
15203;DHT22;7702;51.046;5.184;2022-12-29T15:05:57;10.20;99.90
15203;DHT22;7702;51.046;5.184;2022-12-29T15:08:29;10.10;99.90
15203;DHT22;7702;51.046;5.184;2022-12-29T15:11:12;10.10;99.90
15203;DHT22;7702;51.046;5.184;2022-12-29T15:13:41;10.00;99.90
15203;DHT22;7702;51.046;5.184;2022-12-29T15:18:55;10.00;99.90
15203;DHT22;7702;51.046;5.184;2022-12-29T15:21:32;9.90;99.90
15203;DHT22;7702;51.046;5.184;2022-12-29T15:23:58;9.90;99.90
15203;DHT22;7702;51.046;5.184;2022-12-29T15:26:36;9.90;99.90
15203;DHT22;7702;51.046;5.184;2022-12-29T15:29:03;9.90;99.90
15203;DHT22;7702;51.046;5.184;2022-12-29T15:31:29;9.90;99.90
15203;DHT22;7702;51.046;5.184;2022-12-29T15:34:07;9.60;99.90
15203;DHT22;7702;51.046;5.184;2022-12-29T15:36:37;9.30;99.90
15203;DHT22;7702;51.046;5.184;2022-12-29T15:39:24;9.00;99.90
15203;DHT22;7702;51.046;5.184;2022-12-29T15:44:53;8.40;99.90
15203;DHT22;7702;51.046;5.184;2022-12-29T15:47:28;8.30;99.90
15203;DHT22;7702;51.046;5.184;2022-12-29T15:52:33;8.10;99.90
15203;DHT22;7702;51.046;5.184;2022-12-29T15:55:00;8.10;99.90
15203;DHT22;7702;51.046;5.184;2022-12-29T15:57:35;8.00;99.90
15203;DHT22;7702;51.046;5.184;2022-12-29T16:00:02;8.00;99.90
15203;DHT22;7702;51.046;5.184;2022-12-29T16:02:28;8.00;99.90
15203;DHT22;7702;51.046;5.184;2022-12-29T16:04:55;7.90;99.90
15203;DHT22;7702;51.046;5.184;2022-12-29T16:07:27;7.90;99.90
15203;DHT22;7702;51.046;5.184;2022-12-29T16:09:58;8.00;99.90
15203;DHT22;7702;51.046;5.184;2022-12-29T16:12:35;7.90;99.90
15203;DHT22;7702;51.046;5.184;2022-12-29T16:15:04;7.90;99.90
15203;DHT22;7702;51.046;5.184;2022-12-29T16:17:34;7.90;99.90
15203;DHT22;7702;51.046;5.184;2022-12-29T16:20:04;7.80;99.90
15203;DHT22;7702;51.046;5.184;2022-12-29T16:22:38;7.70;99.90
15203;DHT22;7702;51.046;5.184;2022-12-29T16:25:30;7.70;99.90
15203;DHT22;7702;51.046;5.184;2022-12-29T16:28:00;7.70;99.90
15203;DHT22;7702;51.046;5.184;2022-12-29T16:30:31;7.60;99.90
15203;DHT22;7702;51.046;5.184;2022-12-29T16:33:00;7.60;99.90
15203;DHT22;7702;51.046;5.184;2022-12-29T16:35:48;7.60;99.90
15203;DHT22;7702;51.046;5.184;2022-12-29T16:38:21;7.60;99.90
15203;DHT22;7702;51.046;5.184;2022-12-29T16:40:52;7.60;99.90
15203;DHT22;7702;51.046;5.184;2022-12-29T16:48:20;7.70;99.90
15203;DHT22;7702;51.046;5.184;2022-12-29T16:50:46;7.70;99.90
15203;DHT22;7702;51.046;5.184;2022-12-29T16:53:23;7.70;99.90
15203;DHT22;7702;51.046;5.184;2022-12-29T16:55:51;7.60;99.90
15203;DHT22;7702;51.046;5.184;2022-12-29T16:58:27;7.50;99.90
15203;DHT22;7702;51.046;5.184;2022-12-29T17:00:57;7.50;99.90
15203;DHT22;7702;51.046;5.184;2022-12-29T17:03:31;7.50;99.90
15203;DHT22;7702;51.046;5.184;2022-12-29T17:05:58;7.50;99.90
15203;DHT22;7702;51.046;5.184;2022-12-29T17:08:23;7.40;99.90
15203;DHT22;7702;51.046;5.184;2022-12-29T17:10:55;7.40;99.90
15203;DHT22;7702;51.046;5.184;2022-12-29T17:13:39;7.40;99.90
15203;DHT22;7702;51.046;5.184;2022-12-29T17:16:07;7.40;99.90
15203;DHT22;7702;51.046;5.184;2022-12-29T17:18:34;7.40;99.90
15203;DHT22;7702;51.046;5.184;2022-12-29T17:21:00;7.30;99.90
15203;DHT22;7702;51.046;5.184;2022-12-29T17:23:32;7.30;99.90
15203;DHT22;7702;51.046;5.184;2022-12-29T17:25:59;7.30;99.90
15203;DHT22;7702;51.046;5.184;2022-12-29T17:28:29;7.30;99.90
15203;DHT22;7702;51.046;5.184;2022-12-29T17:31:05;7.20;99.90
15203;DHT22;7702;51.046;5.184;2022-12-29T17:33:35;7.20;99.90
15203;DHT22;7702;51.046;5.184;2022-12-29T17:36:01;7.10;99.90
15203;DHT22;7702;51.046;5.184;2022-12-29T17:38:29;7.10;99.90
15203;DHT22;7702;51.046;5.184;2022-12-29T17:40:55;7.10;99.90
15203;DHT22;7702;51.046;5.184;2022-12-29T17:43:22;7.10;99.90
15203;DHT22;7702;51.046;5.184;2022-12-29T17:45:57;7.10;99.90
15203;DHT22;7702;51.046;5.184;2022-12-29T17:48:24;7.10;99.90
15203;DHT22;7702;51.046;5.184;2022-12-29T17:50:51;7.00;99.90
15203;DHT22;7702;51.046;5.184;2022-12-29T17:53:22;7.10;99.90
15203;DHT22;7702;51.046;5.184;2022-12-29T17:55:49;7.00;99.90
15203;DHT22;7702;51.046;5.184;2022-12-29T17:58:24;7.00;99.90
15203;DHT22;7702;51.046;5.184;2022-12-29T18:00:53;7.00;99.90
15203;DHT22;7702;51.046;5.184;2022-12-29T18:03:35;7.00;99.90
15203;DHT22;7702;51.046;5.184;2022-12-29T18:06:03;7.00;99.90
15203;DHT22;7702;51.046;5.184;2022-12-29T18:08:31;7.10;99.90
15203;DHT22;7702;51.046;5.184;2022-12-29T18:10:57;7.20;99.90
15203;DHT22;7702;51.046;5.184;2022-12-29T18:13:28;7.30;99.90
15203;DHT22;7702;51.046;5.184;2022-12-29T18:15:55;7.40;99.90
15203;DHT22;7702;51.046;5.184;2022-12-29T18:18:24;7.40;99.90
15203;DHT22;7702;51.046;5.184;2022-12-29T18:20:52;7.50;99.90
15203;DHT22;7702;51.046;5.184;2022-12-29T18:23:23;7.50;99.90
15203;DHT22;7702;51.046;5.184;2022-12-29T18:25:55;7.50;99.90
15203;DHT22;7702;51.046;5.184;2022-12-29T18:28:23;7.50;99.90
15203;DHT22;7702;51.046;5.184;2022-12-29T18:30:50;7.50;99.90
15203;DHT22;7702;51.046;5.184;2022-12-29T18:33:17;7.50;99.90
15203;DHT22;7702;51.046;5.184;2022-12-29T18:36:08;7.60;99.90
15203;DHT22;7702;51.046;5.184;2022-12-29T18:38:32;7.60;99.90
15203;DHT22;7702;51.046;5.184;2022-12-29T18:40:58;7.60;99.90
15203;DHT22;7702;51.046;5.184;2022-12-29T18:43:24;7.60;99.90
15203;DHT22;7702;51.046;5.184;2022-12-29T18:45:50;7.60;99.90
15203;DHT22;7702;51.046;5.184;2022-12-29T18:48:18;7.60;99.90
15203;DHT22;7702;51.046;5.184;2022-12-29T18:50:45;7.50;99.90
15203;DHT22;7702;51.046;5.184;2022-12-29T18:53:15;7.50;99.90